Time;durP1;ratioP1;P1;durP2;ratioP2;P2;SDS_P1;SDS_P2;PMS_P1;PMS_P2;Temp;Humidity;BMP_temperature;BMP_pressure;BME280_temperature;BME280_humidity;BME280_pressure;Samples;Min_cycle;Max_cycle;Signal;HPM_P1;HPM_P2
2022/09/28 00:01:18;;;;;;;7.72;5.60;;;10.50;84.60;;;;;;5045404;28;20024;-65
2022/09/28 00:03:45;;;;;;;5.97;4.70;;;10.50;84.70;;;;;;5043084;28;20089;-65
2022/09/28 00:06:13;;;;;;;5.43;4.80;;;10.50;84.70;;;;;;5043844;28;20017;-64
2022/09/28 00:08:39;;;;;;;5.45;4.95;;;10.50;84.70;;;;;;5044616;28;20036;-64
2022/09/28 00:11:07;;;;;;;5.63;4.32;;;10.50;85.40;;;;;;5042467;28;20104;-64
2022/09/28 00:13:33;;;;;;;8.25;5.43;;;10.50;84.80;;;;;;5042285;28;20030;-64
2022/09/28 00:15:59;;;;;;;6.15;4.90;;;10.50;84.90;;;;;;5046020;28;20503;-64
2022/09/28 00:18:25;;;;;;;8.38;6.35;;;10.50;84.80;;;;;;5043911;28;20403;-64
2022/09/28 00:21:03;;;;;;;6.22;5.53;;;10.40;84.70;;;;;;5049451;28;20025;-64
2022/09/28 00:23:29;;;;;;;6.05;5.40;;;10.40;84.70;;;;;;5044257;28;20124;-66
2022/09/28 00:25:54;;;;;;;7.38;6.00;;;10.40;84.80;;;;;;5045766;28;20119;-65
2022/09/28 00:28:20;;;;;;;6.47;5.70;;;10.40;84.90;;;;;;5054104;28;20026;-66
2022/09/28 00:30:45;;;;;;;8.52;6.22;;;10.40;84.90;;;;;;5043981;28;20036;-65
2022/09/28 00:33:11;;;;;;;7.15;5.68;;;10.30;84.90;;;;;;5040879;28;20025;-66
2022/09/28 00:35:37;;;;;;;8.90;5.78;;;10.30;85.00;;;;;;5042787;28;20690;-66
2022/09/28 00:38:02;;;;;;;7.13;6.20;;;10.20;85.00;;;;;;5039767;28;20040;-66
2022/09/28 00:40:28;;;;;;;6.53;5.82;;;10.20;85.10;;;;;;5043209;28;20033;-66
2022/09/28 00:42:54;;;;;;;6.95;5.72;;;10.10;85.20;;;;;;5045354;28;20025;-66
2022/09/28 00:45:22;;;;;;;7.60;5.80;;;10.10;85.30;;;;;;5044315;28;20025;-66
2022/09/28 00:47:52;;;;;;;8.07;5.75;;;10.00;85.40;;;;;;5045987;28;20026;-66
2022/09/28 00:50:28;;;;;;;9.52;6.20;;;10.00;85.50;;;;;;5035965;28;20020;-66
2022/09/28 00:53:10;;;;;;;5.70;5.10;;;10.00;85.50;;;;;;5063846;28;20163;-66
2022/09/28 00:55:52;;;;;;;7.27;6.23;;;10.00;85.50;;;;;;5040862;28;20047;-66
2022/09/28 00:58:23;;;;;;;7.20;4.68;;;9.90;86.20;;;;;;5035793;28;20067;-66
2022/09/28 01:00:49;;;;;;;6.80;4.97;;;9.90;85.60;;;;;;5041598;28;20024;-66
2022/09/28 01:03:15;;;;;;;6.63;5.22;;;9.90;85.70;;;;;;5049064;28;20855;-66
2022/09/28 01:05:43;;;;;;;6.03;4.70;;;9.90;85.70;;;;;;5035810;28;20112;-66
2022/09/28 01:08:10;;;;;;;6.55;4.57;;;9.80;85.60;;;;;;5042325;28;20708;-65
2022/09/28 01:10:38;;;;;;;6.65;5.20;;;9.80;85.70;;;;;;5047886;28;20027;-66
2022/09/28 01:13:03;;;;;;;6.53;4.68;;;9.80;85.70;;;;;;5043730;28;20044;-65
2022/09/28 01:15:33;;;;;;;5.28;4.40;;;9.80;85.70;;;;;;5037987;28;20491;-65
2022/09/28 01:18:24;;;;;;;6.22;4.55;;;9.80;85.70;;;;;;5049372;28;20024;-66
2022/09/28 01:21:11;;;;;;;5.90;4.82;;;9.80;85.80;;;;;;5045379;28;20029;-66
2022/09/28 01:24:01;;;;;;;6.55;4.70;;;9.80;85.80;;;;;;5037414;28;20028;-66
2022/09/28 01:26:44;;;;;;;5.28;3.85;;;9.80;85.80;;;;;;5048092;28;20080;-66
2022/09/28 01:29:38;;;;;;;7.95;6.13;;;9.80;85.70;;;;;;5036500;28;20032;-65
2022/09/28 01:32:21;;;;;;;7.93;5.70;;;9.80;85.60;;;;;;5037641;28;20026;-65
2022/09/28 01:34:53;;;;;;;6.20;4.90;;;9.70;85.60;;;;;;5044570;28;20104;-65
2022/09/28 01:37:20;;;;;;;5.80;5.20;;;9.70;85.70;;;;;;5042826;28;20396;-66
2022/09/28 01:39:48;;;;;;;6.93;5.20;;;9.70;85.70;;;;;;5040831;28;20350;-66
2022/09/28 01:42:28;;;;;;;6.07;4.78;;;9.80;85.80;;;;;;5044082;28;20124;-66
2022/09/28 01:44:59;;;;;;;6.25;5.38;;;9.70;85.80;;;;;;5042312;28;20029;-66
2022/09/28 01:47:27;;;;;;;5.07;4.30;;;9.70;85.70;;;;;;5047630;28;20021;-66
2022/09/28 01:50:02;;;;;;;6.22;5.25;;;9.70;85.80;;;;;;5048921;28;20104;-66
2022/09/28 01:52:36;;;;;;;7.30;5.30;;;9.70;85.90;;;;;;5046204;28;20146;-66
2022/09/28 01:55:43;;;;;;;5.28;4.68;;;9.70;85.90;;;;;;5047972;28;20480;-66
2022/09/28 01:58:23;;;;;;;6.55;4.55;;;9.70;85.90;;;;;;5050088;28;20116;-66
2022/09/28 02:00:55;;;;;;;6.90;5.00;;;9.60;85.90;;;;;;5040986;28;20049;-66
2022/09/28 02:03:28;;;;;;;8.30;5.80;;;9.50;85.90;;;;;;5050465;28;20036;-66
2022/09/28 02:06:01;;;;;;;7.55;5.35;;;9.50;86.10;;;;;;5050618;28;20069;-66
2022/09/28 02:08:33;;;;;;;5.80;4.53;;;9.50;86.10;;;;;;5043563;28;20025;-66
2022/09/28 02:11:14;;;;;;;7.47;5.07;;;9.60;86.20;;;;;;5046377;28;20022;-66
2022/09/28 02:13:44;;;;;;;5.95;5.35;;;9.50;86.10;;;;;;5046986;28;20491;-66
2022/09/28 02:16:30;;;;;;;6.38;4.90;;;9.50;86.20;;;;;;5046709;28;20067;-66
2022/09/28 02:18:58;;;;;;;6.95;5.63;;;9.50;86.80;;;;;;5045579;28;20039;-66
2022/09/28 02:21:26;;;;;;;5.78;4.72;;;9.50;86.20;;;;;;5049440;28;20051;-66
2022/09/28 02:23:57;;;;;;;7.07;5.22;;;9.50;86.20;;;;;;5042965;28;20052;-66
2022/09/28 02:26:30;;;;;;;7.70;5.50;;;9.50;86.30;;;;;;5047114;28;20029;-66
2022/09/28 02:28:55;;;;;;;7.07;5.18;;;9.50;86.20;;;;;;5046382;28;20423;-66
2022/09/28 02:31:21;;;;;;;5.25;4.03;;;9.50;86.20;;;;;;5047076;28;20024;-66
2022/09/28 02:33:49;;;;;;;7.75;6.03;;;9.50;86.00;;;;;;5045172;28;20040;-66
2022/09/28 02:36:15;;;;;;;6.72;5.00;;;9.50;86.10;;;;;;5049586;28;20021;-66
2022/09/28 02:38:41;;;;;;;7.00;5.45;;;9.50;86.10;;;;;;5058550;28;20094;-66
2022/09/28 02:41:54;;;;;;;8.77;5.47;;;9.50;86.10;;;;;;5058911;28;20022;-66
2022/09/28 02:44:58;;;;;;;6.35;5.40;;;9.60;86.20;;;;;;5053981;28;20057;-66
2022/09/28 02:47:37;;;;;;;6.07;4.85;;;9.60;86.10;;;;;;5045227;28;20068;-65
2022/09/28 02:50:21;;;;;;;8.00;5.90;;;9.60;86.00;;;;;;5061268;28;20546;-65
2022/09/28 02:53:02;;;;;;;7.65;5.97;;;9.70;86.10;;;;;;5042882;28;20766;-65
2022/09/28 02:55:59;;;;;;;8.45;6.70;;;9.70;86.00;;;;;;5045464;28;20033;-65
2022/09/28 02:58:31;;;;;;;6.45;5.03;;;9.70;86.00;;;;;;5045031;28;20125;-65
2022/09/28 03:01:22;;;;;;;8.02;6.75;;;9.80;86.00;;;;;;5042792;28;20108;-65
2022/09/28 03:03:56;;;;;;;8.75;6.47;;;9.80;86.00;;;;;;5045376;28;20025;-65
2022/09/28 03:06:30;;;;;;;7.78;5.82;;;9.80;85.80;;;;;;5046138;28;20017;-65
2022/09/28 03:09:28;;;;;;;7.60;6.07;;;9.80;85.80;;;;;;5049002;28;20054;-66
2022/09/28 03:11:58;;;;;;;6.75;4.63;;;9.90;85.90;;;;;;5039301;28;20041;-66
2022/09/28 03:14:24;;;;;;;5.35;4.70;;;9.90;85.90;;;;;;5041691;28;20060;-66
2022/09/28 03:16:50;;;;;;;6.93;4.80;;;9.90;85.90;;;;;;5041665;28;20056;-67
2022/09/28 03:19:21;;;;;;;6.90;4.70;;;9.90;85.90;;;;;;5039038;28;20033;-67
2022/09/28 03:21:46;;;;;;;7.53;5.32;;;9.90;85.80;;;;;;5040730;28;20040;-67
2022/09/28 03:24:12;;;;;;;6.50;5.38;;;10.00;85.80;;;;;;5041032;28;20029;-66
2022/09/28 03:26:38;;;;;;;6.75;5.50;;;10.00;85.70;;;;;;5047414;28;20029;-66
2022/09/28 03:29:04;;;;;;;6.55;5.30;;;10.00;85.70;;;;;;5048709;28;20028;-66
2022/09/28 03:31:30;;;;;;;7.95;5.50;;;10.00;85.70;;;;;;5043139;28;20461;-66
2022/09/28 03:33:55;;;;;;;7.10;4.97;;;10.00;85.70;;;;;;5038879;28;20029;-66
2022/09/28 03:36:21;;;;;;;7.57;5.43;;;10.00;85.70;;;;;;5041451;28;20057;-67
2022/09/28 03:38:47;;;;;;;6.97;5.50;;;10.00;85.60;;;;;;5041236;28;20078;-67
2022/09/28 03:41:12;;;;;;;6.38;5.22;;;10.00;85.70;;;;;;5037869;28;20033;-66
2022/09/28 03:43:38;;;;;;;6.65;4.80;;;10.00;85.60;;;;;;5044392;28;20466;-66
2022/09/28 03:46:04;;;;;;;5.65;4.82;;;10.00;85.70;;;;;;5043819;28;20104;-66
2022/09/28 03:48:32;;;;;;;6.68;5.10;;;10.10;85.70;;;;;;5045819;28;20029;-66
2022/09/28 03:51:01;;;;;;;5.72;4.22;;;10.10;85.70;;;;;;5044137;28;20018;-66
2022/09/28 03:53:28;;;;;;;4.20;3.53;;;10.00;85.60;;;;;;5041438;28;20026;-66
2022/09/28 03:55:54;;;;;;;4.38;3.58;;;10.10;85.60;;;;;;5044415;28;20025;-66
2022/09/28 03:58:20;;;;;;;5.10;3.33;;;10.10;85.60;;;;;;5048573;28;20033;-66
2022/09/28 04:00:47;;;;;;;5.78;3.75;;;10.10;85.60;;;;;;5043848;28;20017;-66
2022/09/28 04:03:12;;;;;;;4.78;4.28;;;10.10;86.20;;;;;;5040696;28;20037;-66
2022/09/28 04:05:38;;;;;;;4.07;3.30;;;10.10;85.50;;;;;;5042186;28;20029;-67
2022/09/28 04:08:04;;;;;;;5.40;3.60;;;10.10;86.10;;;;;;5039850;28;20049;-67
2022/09/28 04:10:29;;;;;;;4.47;3.20;;;10.10;85.50;;;;;;5048219;28;20103;-67
2022/09/28 04:12:56;;;;;;;4.70;4.15;;;10.10;85.50;;;;;;5042001;28;20032;-67
2022/09/28 04:15:23;;;;;;;4.57;3.80;;;10.10;85.40;;;;;;5041042;28;20104;-66
2022/09/28 04:17:49;;;;;;;4.18;3.28;;;10.10;85.50;;;;;;5042029;28;20094;-66
2022/09/28 04:20:15;;;;;;;3.45;2.85;;;10.20;85.50;;;;;;5049021;28;20537;-66
2022/09/28 04:22:41;;;;;;;4.85;3.67;;;10.20;85.40;;;;;;5039169;28;20025;-66
2022/09/28 04:25:07;;;;;;;4.03;3.35;;;10.20;85.30;;;;;;5034583;28;20113;-66
2022/09/28 04:30:17;;;;;;;5.45;4.45;;;10.20;85.20;;;;;;5040305;28;20053;-66
2022/09/28 04:32:45;;;;;;;4.45;3.47;;;10.20;85.10;;;;;;5040513;28;20480;-66
2022/09/28 04:35:14;;;;;;;5.45;3.50;;;10.10;85.20;;;;;;5041281;28;20752;-66
2022/09/28 04:37:39;;;;;;;5.32;3.78;;;10.10;85.20;;;;;;5039973;28;20033;-66
2022/09/28 04:40:06;;;;;;;4.57;3.70;;;10.10;85.30;;;;;;5043830;28;20024;-66
2022/09/28 04:42:31;;;;;;;3.60;3.13;;;10.10;85.20;;;;;;5048086;28;20021;-66
2022/09/28 04:44:57;;;;;;;4.82;3.78;;;10.10;85.20;;;;;;5036756;28;20503;-66
2022/09/28 04:47:24;;;;;;;4.60;3.35;;;10.10;85.30;;;;;;5040822;28;20017;-66
2022/09/28 04:49:49;;;;;;;3.58;3.17;;;10.00;85.30;;;;;;5042023;28;20028;-66
2022/09/28 04:52:15;;;;;;;4.18;3.30;;;10.00;85.30;;;;;;5041577;28;20435;-66
2022/09/28 04:54:41;;;;;;;4.25;3.78;;;10.00;85.30;;;;;;5042180;28;20037;-66
2022/09/28 04:57:06;;;;;;;4.57;3.70;;;9.90;85.10;;;;;;5034553;28;20037;-66
2022/09/28 04:59:32;;;;;;;5.53;3.40;;;9.90;85.20;;;;;;5040649;28;20021;-66
2022/09/28 05:01:58;;;;;;;4.13;3.53;;;9.80;85.20;;;;;;5041274;28;20533;-65
2022/09/28 05:04:23;;;;;;;4.90;3.65;;;9.70;85.40;;;;;;5042242;28;20155;-66
2022/09/28 05:06:49;;;;;;;5.10;3.55;;;9.80;85.40;;;;;;5038648;28;20048;-66
2022/09/28 05:09:15;;;;;;;5.03;3.53;;;9.70;85.40;;;;;;5040344;28;20511;-66
2022/09/28 05:11:40;;;;;;;3.97;3.50;;;9.70;85.30;;;;;;5040652;28;20473;-66
2022/09/28 05:14:06;;;;;;;4.30;3.50;;;9.70;85.20;;;;;;5039642;28;20016;-66
2022/09/28 05:16:35;;;;;;;3.83;3.42;;;9.70;85.10;;;;;;5042663;28;20030;-65
2022/09/28 05:19:00;;;;;;;4.80;3.55;;;9.60;85.20;;;;;;5038391;28;20635;-66
2022/09/28 05:21:28;;;;;;;4.47;3.60;;;9.50;85.20;;;;;;5044114;28;20017;-65
2022/09/28 05:23:55;;;;;;;5.43;3.35;;;9.50;85.20;;;;;;5040308;28;20028;-65
2022/09/28 05:26:21;;;;;;;5.47;3.60;;;9.40;85.40;;;;;;5040586;28;20113;-65
2022/09/28 05:28:47;;;;;;;3.72;3.30;;;9.40;85.50;;;;;;5041606;28;20013;-65
2022/09/28 05:31:13;;;;;;;5.30;3.92;;;9.40;85.50;;;;;;5035881;28;20357;-66
2022/09/28 05:33:38;;;;;;;4.90;3.58;;;9.30;85.60;;;;;;5042950;28;20051;-66
2022/09/28 05:36:07;;;;;;;4.18;3.53;;;9.30;85.60;;;;;;5043175;28;20086;-66
2022/09/28 05:38:32;;;;;;;5.18;3.85;;;9.30;85.60;;;;;;5044864;28;20041;-66
2022/09/28 05:40:58;;;;;;;4.30;3.53;;;9.30;85.60;;;;;;5044348;28;20503;-66
2022/09/28 05:43:23;;;;;;;5.25;3.63;;;9.30;85.50;;;;;;5041760;28;20026;-66
2022/09/28 05:45:49;;;;;;;4.82;3.80;;;9.30;85.60;;;;;;5038897;28;20029;-66
2022/09/28 05:48:15;;;;;;;4.03;3.63;;;9.30;85.60;;;;;;5040311;28;20017;-65
2022/09/28 05:50:40;;;;;;;3.75;3.35;;;9.30;85.70;;;;;;5036206;28;20022;-66
2022/09/28 05:53:08;;;;;;;3.83;3.40;;;9.30;85.60;;;;;;5035457;28;20112;-66
2022/09/28 05:55:35;;;;;;;4.72;3.55;;;9.30;85.60;;;;;;5040524;28;20033;-66
2022/09/28 05:58:03;;;;;;;4.03;3.10;;;9.20;85.50;;;;;;5043935;28;20107;-66
2022/09/28 06:00:30;;;;;;;3.88;3.42;;;9.30;85.60;;;;;;5045048;28;20357;-66
2022/09/28 06:03:04;;;;;;;4.63;3.60;;;9.30;85.50;;;;;;5044293;28;20036;-65
2022/09/28 06:05:31;;;;;;;4.95;3.63;;;9.30;85.50;;;;;;5047331;28;20036;-65
2022/09/28 06:07:58;;;;;;;3.92;3.40;;;9.30;85.50;;;;;;5052925;28;20105;-65
2022/09/28 06:10:25;;;;;;;3.83;3.03;;;9.30;85.60;;;;;;5042576;28;20101;-65
2022/09/28 06:12:54;;;;;;;4.15;3.28;;;9.30;85.50;;;;;;5054196;28;20436;-65
2022/09/28 06:15:22;;;;;;;5.05;3.40;;;9.30;85.50;;;;;;5046577;28;20032;-67
2022/09/28 06:17:54;;;;;;;3.70;3.25;;;9.30;85.50;;;;;;5046996;28;20083;-65
2022/09/28 06:20:19;;;;;;;3.53;3.22;;;9.30;85.30;;;;;;5037882;28;20033;-65
2022/09/28 06:22:45;;;;;;;3.20;2.90;;;9.40;85.20;;;;;;5038380;28;20079;-65
2022/09/28 06:25:10;;;;;;;3.15;2.65;;;9.40;85.30;;;;;;5040845;28;20404;-65
2022/09/28 06:27:36;;;;;;;3.28;2.70;;;9.40;85.30;;;;;;5035426;28;20051;-65
2022/09/28 06:30:02;;;;;;;4.25;3.63;;;9.40;85.30;;;;;;5038277;28;20026;-65
2022/09/28 06:32:28;;;;;;;3.90;3.38;;;9.50;85.30;;;;;;5043431;28;21748;-65
2022/09/28 06:34:54;;;;;;;4.60;3.20;;;9.50;85.20;;;;;;5043737;28;20075;-65
2022/09/28 06:37:20;;;;;;;3.53;2.67;;;9.60;85.10;;;;;;5051057;28;20025;-65
2022/09/28 06:39:45;;;;;;;4.90;3.58;;;9.60;85.00;;;;;;5046197;28;20054;-65
2022/09/28 06:42:11;;;;;;;3.05;2.72;;;9.70;85.00;;;;;;5044707;28;20040;-67
2022/09/28 06:44:36;;;;;;;3.42;2.78;;;9.80;84.90;;;;;;5035268;28;20040;-67
2022/09/28 06:47:02;;;;;;;4.38;2.88;;;9.90;84.80;;;;;;5044894;28;20407;-65
2022/09/28 06:49:29;;;;;;;3.80;2.67;;;10.00;84.70;;;;;;5045060;28;20022;-66
2022/09/28 06:51:54;;;;;;;3.33;2.83;;;10.10;84.50;;;;;;5039047;28;20016;-65
2022/09/28 06:54:24;;;;;;;3.08;2.63;;;10.10;84.30;;;;;;5037085;28;20041;-65
2022/09/28 06:56:51;;;;;;;3.78;2.72;;;10.20;84.30;;;;;;5038274;28;20969;-66
2022/09/28 06:59:16;;;;;;;2.15;1.95;;;10.20;84.20;;;;;;5043647;28;20496;-65
2022/09/28 07:01:42;;;;;;;2.88;2.58;;;10.30;84.10;;;;;;5042773;28;20021;-65
2022/09/28 07:04:08;;;;;;;2.55;2.10;;;10.30;84.10;;;;;;5038547;28;20033;-65
2022/09/28 07:06:33;;;;;;;2.38;2.10;;;10.40;84.00;;;;;;5050846;28;20029;-66
2022/09/28 07:09:01;;;;;;;2.10;1.80;;;10.50;84.00;;;;;;5035717;28;20031;-65
2022/09/28 07:11:28;;;;;;;1.65;1.52;;;10.50;83.70;;;;;;5040909;28;20028;-65
2022/09/28 07:13:54;;;;;;;2.90;1.77;;;10.60;83.70;;;;;;5045478;28;20017;-66
2022/09/28 07:16:19;;;;;;;2.20;1.58;;;10.60;83.70;;;;;;5043473;28;20031;-65
2022/09/28 07:18:45;;;;;;;1.60;1.50;;;10.70;83.70;;;;;;5037340;28;20186;-65
2022/09/28 07:21:11;;;;;;;1.70;1.60;;;10.70;83.50;;;;;;5039465;28;20167;-66
2022/09/28 07:23:36;;;;;;;2.15;1.80;;;10.80;83.40;;;;;;5037338;28;20018;-65
2022/09/28 07:26:04;;;;;;;2.22;1.60;;;10.80;83.50;;;;;;5039898;28;20043;-65
2022/09/28 07:28:30;;;;;;;1.83;1.60;;;10.90;83.40;;;;;;5039240;28;20376;-65
2022/09/28 07:30:56;;;;;;;1.60;1.50;;;10.90;83.30;;;;;;5036123;28;20040;-66
2022/09/28 07:33:30;;;;;;;1.73;1.50;;;11.00;83.30;;;;;;5034453;28;20029;-65
2022/09/28 07:35:55;;;;;;;1.40;1.30;;;11.10;83.20;;;;;;5043804;28;20130;-65
2022/09/28 07:38:21;;;;;;;1.65;1.50;;;11.20;83.10;;;;;;5037255;28;20108;-66
2022/09/28 07:43:31;;;;;;;1.60;1.50;;;11.20;82.70;;;;;;5035660;28;20048;-65
2022/09/28 07:45:57;;;;;;;1.20;1.10;;;11.30;82.60;;;;;;5040235;28;20070;-67
2022/09/28 07:48:23;;;;;;;1.83;1.30;;;11.30;82.60;;;;;;5039179;28;20017;-66
2022/09/28 07:50:55;;;;;;;1.15;1.08;;;11.30;82.40;;;;;;5032311;28;20045;-66
2022/09/28 07:53:23;;;;;;;2.17;1.13;;;11.30;82.40;;;;;;5035862;28;20051;-65
2022/09/28 07:55:53;;;;;;;2.35;1.20;;;11.40;82.40;;;;;;5036264;28;20689;-65
2022/09/28 07:58:19;;;;;;;2.10;1.38;;;11.40;82.20;;;;;;5035754;28;20039;-65
2022/09/28 08:00:48;;;;;;;1.65;1.20;;;11.50;82.20;;;;;;5035224;28;20037;-65
2022/09/28 08:03:18;;;;;;;1.52;1.20;;;11.60;82.30;;;;;;5040042;28;20029;-65
2022/09/28 08:05:45;;;;;;;1.35;1.20;;;11.60;82.30;;;;;;5041469;28;20053;-65
2022/09/28 08:08:12;;;;;;;1.25;1.15;;;11.70;82.10;;;;;;5038897;28;20732;-65
2022/09/28 08:10:40;;;;;;;1.50;1.33;;;11.80;82.00;;;;;;5047109;28;20100;-66
2022/09/28 08:13:06;;;;;;;1.60;1.20;;;11.80;81.80;;;;;;5039269;28;20492;-66
2022/09/28 08:15:37;;;;;;;1.80;1.10;;;11.80;81.80;;;;;;5039402;28;20056;-66
2022/09/28 08:18:06;;;;;;;1.02;0.90;;;11.90;81.80;;;;;;5032214;28;20112;-66
2022/09/28 08:23:17;;;;;;;1.27;1.10;;;12.00;81.80;;;;;;5037376;28;20546;-66
2022/09/28 08:25:47;;;;;;;1.05;1.00;;;12.10;81.70;;;;;;5036941;28;20030;-65
2022/09/28 08:28:15;;;;;;;1.27;0.90;;;12.20;81.50;;;;;;5039646;28;20044;-66
2022/09/28 08:30:40;;;;;;;1.42;1.08;;;12.20;81.50;;;;;;5033586;28;20032;-66
2022/09/28 08:33:06;;;;;;;1.00;0.90;;;12.30;81.40;;;;;;5038564;28;20033;-66
2022/09/28 08:35:32;;;;;;;1.45;0.95;;;12.40;81.10;;;;;;5035652;28;20104;-66
2022/09/28 08:37:58;;;;;;;0.70;0.70;;;12.50;80.90;;;;;;5036012;28;20044;-66
2022/09/28 08:40:24;;;;;;;1.33;0.80;;;12.50;80.70;;;;;;5038117;28;20032;-66
2022/09/28 08:43:01;;;;;;;1.48;0.90;;;12.60;80.60;;;;;;5049710;28;20029;-66
2022/09/28 08:45:30;;;;;;;1.65;0.98;;;12.70;80.40;;;;;;5040725;28;20025;-66
2022/09/28 08:51:14;;;;;;;1.75;1.10;;;12.80;79.90;;;;;;5031478;28;20082;-65
2022/09/28 08:54:04;;;;;;;1.63;1.00;;;12.90;79.60;;;;;;5042211;28;20043;-65
2022/09/28 08:56:40;;;;;;;1.85;0.95;;;13.00;79.70;;;;;;5037542;28;20101;-66
2022/09/28 08:59:12;;;;;;;0.80;0.80;;;13.00;79.20;;;;;;5038111;28;20392;-65
2022/09/28 09:01:45;;;;;;;0.73;0.73;;;13.10;79.10;;;;;;5033495;28;20028;-67
2022/09/28 09:04:12;;;;;;;0.98;0.90;;;13.10;79.00;;;;;;5040003;28;20029;-65
2022/09/28 09:06:43;;;;;;;1.10;1.00;;;13.10;79.00;;;;;;5045856;28;20017;-65
2022/09/28 09:09:19;;;;;;;1.40;0.70;;;13.10;78.90;;;;;;5038189;28;20025;-65
2022/09/28 09:12:03;;;;;;;1.55;0.90;;;13.20;79.10;;;;;;5037378;28;20064;-65
2022/09/28 09:14:29;;;;;;;0.98;0.80;;;13.30;78.90;;;;;;5032881;28;20083;-65
2022/09/28 09:17:19;;;;;;;0.80;0.70;;;13.50;78.60;;;;;;5037810;28;20033;-65
2022/09/28 09:19:53;;;;;;;3.33;0.90;;;13.60;78.10;;;;;;5028597;28;20503;-65
2022/09/28 09:22:39;;;;;;;0.77;0.63;;;13.70;77.70;;;;;;5042150;28;20095;-65
2022/09/28 09:25:29;;;;;;;1.75;0.80;;;13.80;77.30;;;;;;5038878;28;20056;-66
2022/09/28 09:28:09;;;;;;;1.33;0.90;;;14.00;76.80;;;;;;5036430;28;20703;-65
2022/09/28 09:31:15;;;;;;;1.00;0.65;;;13.90;76.30;;;;;;5036772;28;20020;-65
2022/09/28 09:33:51;;;;;;;1.52;0.80;;;14.00;76.40;;;;;;5041061;28;20037;-65
2022/09/28 09:36:53;;;;;;;2.58;0.90;;;13.90;76.30;;;;;;5032752;28;20032;-66
2022/09/28 09:39:57;;;;;;;1.05;0.95;;;13.90;76.30;;;;;;5033437;28;20029;-66
2022/09/28 09:42:51;;;;;;;1.10;0.80;;;14.00;76.30;;;;;;5037679;28;20100;-66
2022/09/28 09:45:41;;;;;;;1.73;0.80;;;13.90;76.50;;;;;;5041949;28;20025;-65
2022/09/28 09:48:30;;;;;;;1.33;0.85;;;13.90;75.10;;;;;;5041998;28;20057;-66
2022/09/28 09:51:08;;;;;;;4.63;2.40;;;13.90;75.10;;;;;;5033997;28;20108;-65
2022/09/28 09:53:43;;;;;;;1.88;1.20;;;14.00;74.90;;;;;;5051310;28;20036;-65
2022/09/28 09:56:17;;;;;;;1.90;1.08;;;14.10;74.40;;;;;;5043254;28;20025;-65
2022/09/28 09:58:50;;;;;;;2.10;0.80;;;14.30;74.20;;;;;;5034660;28;20033;-65
2022/09/28 10:01:19;;;;;;;1.85;0.80;;;14.40;73.80;;;;;;5034228;28;20036;-65
2022/09/28 10:03:47;;;;;;;1.10;0.75;;;14.50;73.20;;;;;;5038588;28;20033;-64
2022/09/28 10:06:46;;;;;;;1.83;0.93;;;14.60;73.10;;;;;;5042838;28;20044;-65
2022/09/28 10:09:37;;;;;;;1.15;0.60;;;14.70;72.90;;;;;;5013567;28;20041;-65
2022/09/28 10:12:03;;;;;;;1.13;0.70;;;14.80;72.70;;;;;;5042649;28;20045;-65
2022/09/28 10:14:29;;;;;;;1.65;0.90;;;14.80;72.40;;;;;;5043787;28;20025;-65
2022/09/28 10:16:57;;;;;;;1.15;0.80;;;14.80;72.20;;;;;;5042631;28;20380;-65
2022/09/28 10:19:33;;;;;;;0.50;0.50;;;14.80;72.00;;;;;;5044243;28;20037;-65
2022/09/28 10:22:02;;;;;;;1.25;0.70;;;14.80;71.90;;;;;;5045100;28;20037;-65
2022/09/28 10:24:29;;;;;;;1.05;0.60;;;14.90;71.60;;;;;;5037620;28;20119;-65
2022/09/28 10:27:03;;;;;;;0.40;0.40;;;15.00;71.60;;;;;;5041621;28;20021;-65
2022/09/28 10:29:36;;;;;;;1.05;0.63;;;14.90;71.60;;;;;;5040664;28;20531;-65
2022/09/28 10:32:18;;;;;;;1.58;0.60;;;14.90;71.50;;;;;;5050235;28;20116;-65
2022/09/28 10:34:43;;;;;;;0.60;0.60;;;14.80;71.50;;;;;;5044122;28;20492;-65
2022/09/28 10:37:10;;;;;;;0.98;0.60;;;14.90;71.60;;;;;;5049315;28;20028;-64
2022/09/28 10:39:44;;;;;;;1.10;0.50;;;15.00;71.60;;;;;;5038994;28;20502;-64
2022/09/28 10:42:16;;;;;;;0.95;0.60;;;15.00;71.10;;;;;;5042692;28;20141;-65
2022/09/28 10:45:05;;;;;;;1.10;0.50;;;15.10;70.90;;;;;;5045286;28;21547;-66
2022/09/28 10:47:34;;;;;;;0.80;0.60;;;15.10;70.50;;;;;;5045896;28;20040;-65
2022/09/28 10:50:00;;;;;;;1.27;0.60;;;15.10;70.30;;;;;;5047237;28;20029;-65
2022/09/28 10:52:37;;;;;;;0.98;0.63;;;15.10;70.30;;;;;;5044766;28;20032;-66
2022/09/28 10:55:25;;;;;;;1.08;0.60;;;15.10;70.10;;;;;;5050626;28;20036;-65
2022/09/28 10:57:51;;;;;;;1.45;1.02;;;15.10;70.30;;;;;;5040748;28;20021;-65
2022/09/28 11:00:33;;;;;;;1.33;1.10;;;15.10;70.30;;;;;;5053806;28;20126;-65
2022/09/28 11:03:01;;;;;;;0.80;0.80;;;15.00;70.10;;;;;;5043326;28;20109;-66
2022/09/28 11:05:27;;;;;;;0.70;0.60;;;15.10;70.30;;;;;;5058108;28;20028;-65
2022/09/28 11:07:54;;;;;;;0.65;0.50;;;15.10;70.20;;;;;;5047054;28;20028;-65
2022/09/28 11:10:29;;;;;;;0.80;0.57;;;15.10;70.30;;;;;;5052636;28;20104;-65
2022/09/28 11:12:55;;;;;;;0.73;0.50;;;15.10;69.90;;;;;;5044020;28;20032;-65
2022/09/28 11:15:32;;;;;;;1.08;0.98;;;15.20;69.70;;;;;;5051023;28;20082;-65
2022/09/28 11:18:23;;;;;;;1.10;0.70;;;15.30;69.50;;;;;;5047689;28;20040;-65
2022/09/28 11:20:49;;;;;;;2.25;0.70;;;15.30;68.90;;;;;;5052009;28;20386;-66
2022/09/28 11:23:17;;;;;;;0.50;0.50;;;15.30;68.60;;;;;;5049434;28;20030;-66
2022/09/28 11:25:53;;;;;;;0.95;0.57;;;15.40;67.80;;;;;;5049671;28;20024;-66
2022/09/28 11:28:27;;;;;;;0.40;0.40;;;15.50;67.50;;;;;;5038525;28;20021;-65
2022/09/28 11:30:53;;;;;;;0.98;0.50;;;15.50;67.10;;;;;;5057760;28;20018;-65
2022/09/28 11:33:28;;;;;;;0.40;0.40;;;15.50;66.60;;;;;;5051845;28;20529;-66
2022/09/28 11:36:20;;;;;;;2.45;1.73;;;15.50;66.80;;;;;;5062778;28;20038;-66
2022/09/28 11:38:57;;;;;;;3.93;2.13;;;15.60;67.00;;;;;;5045444;28;20063;-66
2022/09/28 11:41:44;;;;;;;2.58;1.20;;;15.70;67.00;;;;;;5043112;28;20363;-66
2022/09/28 11:44:22;;;;;;;0.93;0.80;;;15.90;67.10;;;;;;5041051;28;20037;-66
2022/09/28 11:47:03;;;;;;;0.77;0.60;;;16.10;66.60;;;;;;5041367;28;20024;-66
2022/09/28 11:49:44;;;;;;;0.65;0.50;;;16.30;66.40;;;;;;5044853;28;20059;-66
2022/09/28 11:52:20;;;;;;;0.55;0.50;;;16.40;65.60;;;;;;5046541;28;20030;-65
2022/09/28 11:55:00;;;;;;;0.43;0.40;;;16.40;65.10;;;;;;5042752;28;20079;-66
2022/09/28 11:57:32;;;;;;;1.08;0.40;;;16.30;65.10;;;;;;5036197;28;20033;-65
2022/09/28 12:00:06;;;;;;;0.40;0.40;;;16.30;65.10;;;;;;5048683;28;20021;-65
2022/09/28 12:02:43;;;;;;;0.50;0.50;;;16.30;65.10;;;;;;5044486;28;20032;-65
2022/09/28 12:05:21;;;;;;;1.17;0.50;;;16.20;65.00;;;;;;5038657;28;20083;-66
2022/09/28 12:08:09;;;;;;;0.52;0.50;;;16.20;65.20;;;;;;5041760;28;20017;-65
2022/09/28 12:10:59;;;;;;;0.50;0.50;;;16.10;65.40;;;;;;5040783;28;20029;-65
2022/09/28 12:13:33;;;;;;;0.60;0.40;;;16.20;65.60;;;;;;5053025;28;20075;-65
2022/09/28 12:16:00;;;;;;;0.93;0.50;;;16.30;65.60;;;;;;5046715;28;20049;-66
2022/09/28 12:18:35;;;;;;;1.30;0.50;;;16.40;65.40;;;;;;5051510;28;20086;-66
2022/09/28 12:21:32;;;;;;;1.08;0.50;;;16.50;64.90;;;;;;5041573;28;20055;-65
2022/09/28 12:24:17;;;;;;;0.75;0.40;;;16.50;64.40;;;;;;5042888;28;20062;-65
2022/09/28 12:27:05;;;;;;;0.68;0.30;;;16.40;64.60;;;;;;5043213;28;20935;-65
2022/09/28 12:29:49;;;;;;;0.40;0.40;;;16.40;64.40;;;;;;5041638;28;20100;-65
2022/09/28 12:32:34;;;;;;;0.40;0.35;;;16.60;64.10;;;;;;5041063;28;20444;-65
2022/09/28 12:35:01;;;;;;;0.85;0.40;;;16.80;63.90;;;;;;5038882;28;20021;-65
2022/09/28 12:38:07;;;;;;;0.32;0.32;;;17.00;63.30;;;;;;5037749;28;20081;-65
2022/09/28 12:40:50;;;;;;;0.65;0.40;;;17.20;62.70;;;;;;5042081;28;20029;-65
2022/09/28 12:43:43;;;;;;;1.10;0.50;;;17.40;62.40;;;;;;5038376;28;20550;-65
2022/09/28 12:46:37;;;;;;;0.90;0.45;;;17.60;61.70;;;;;;5038518;28;20512;-65
2022/09/28 12:49:23;;;;;;;0.50;0.40;;;17.90;61.20;;;;;;5040743;28;20047;-65
2022/09/28 12:51:56;;;;;;;0.30;0.30;;;18.00;60.80;;;;;;5038008;28;20628;-64
2022/09/28 12:54:43;;;;;;;0.30;0.30;;;18.10;59.70;;;;;;5041066;28;20048;-65
2022/09/28 12:57:34;;;;;;;0.40;0.32;;;18.00;59.10;;;;;;5043926;28;20043;-65
2022/09/28 13:00:16;;;;;;;0.50;0.35;;;17.80;59.40;;;;;;5039646;28;20037;-65
2022/09/28 13:03:12;;;;;;;35.93;32.03;;;17.70;59.70;;;;;;5041607;28;20016;-65
2022/09/28 13:06:07;;;;;;;10.13;9.13;;;17.60;60.40;;;;;;5037712;28;20037;-66
2022/09/28 13:09:00;;;;;;;3.78;3.20;;;17.60;60.90;;;;;;5042769;28;20086;-65
2022/09/28 13:11:25;;;;;;;2.08;1.58;;;17.50;60.80;;;;;;5037048;28;20034;-66
2022/09/28 13:14:00;;;;;;;0.90;0.90;;;17.50;61.10;;;;;;5040728;28;20445;-66
2022/09/28 13:16:36;;;;;;;0.50;0.50;;;17.30;61.10;;;;;;5036441;28;20019;-65
2022/09/28 13:19:35;;;;;;;0.77;0.43;;;17.30;61.50;;;;;;5039066;28;20021;-65
2022/09/28 13:22:27;;;;;;;0.40;0.40;;;17.30;61.70;;;;;;5037584;28;20018;-66
2022/09/28 13:24:55;;;;;;;0.40;0.40;;;17.20;62.00;;;;;;5036373;28;20028;-66
2022/09/28 13:27:32;;;;;;;0.70;0.63;;;17.20;62.20;;;;;;5037070;28;20018;-66
2022/09/28 13:30:01;;;;;;;0.50;0.50;;;17.20;62.40;;;;;;5044283;28;20477;-65